»·PEaware :: N270MH KBFI-KPDX

N270MH :: KBFI-KPDX

FLIGHT INFORMATION

Flight Status: Arrived
Operator: Privately registered:
United States
More flights under this callsign
Pilot: Armando C. (16967)
Aircraft: Unknown
(LEG2)
More flights by this aircraft type
Origin: KBFI Boeing Field/King Co Intl
United States
Destination: KPDX Portland Intl
United States
More flights between these airports :: More routes between these airports
Route: +KENT8 ZIGED SEA V495 BTG
File this flight plan on PilotEdge
Remarks:
Altitude:
(Current/Filed)
90ft
Speed:
(Current/Filed)
235kts
Departed: 29-Dec-17 02:04 PM
Arrived: 29-Dec-17 02:51 PM
Distance/Time
Traveled:
117nm/0:46
Distance/Time
To Go:
Arrived

Flight Plot

Page will automatically refresh every two minutes.

Flight plan parsing failed; only flown route is shown


Map Options




Map Legend


Flown Route
Filed Route
Departure Airport
Arrival Airport
Navaid (VOR, NDB)
Fix

Horizontal Profiles

Position Reports

Time Latitude Longitude Heading Altitude Ground
Speed
29-Dec-17 13:57 47.536819 -122.304981 147 21ft 0kts
29-Dec-17 13:58 47.536817 -122.304979 147 21ft 0kts
29-Dec-17 13:59 47.536815 -122.304977 147 21ft 0kts
29-Dec-17 14:00 47.536813 -122.304975 147 21ft 0kts
29-Dec-17 14:01 47.536812 -122.304974 147 21ft 0kts
29-Dec-17 14:02 47.536810 -122.304972 147 21ft 0kts
29-Dec-17 14:03 47.536808 -122.304971 147 21ft 0kts
29-Dec-17 14:04 47.536807 -122.304969 147 21ft 0kts
29-Dec-17 14:05 47.536805 -122.304968 147 21ft 0kts
29-Dec-17 14:06 47.536524 -122.304905 204 21ft 8kts
29-Dec-17 14:07 47.537580 -122.306590 254 21ft 0kts
29-Dec-17 14:08 47.537579 -122.306592 254 21ft 0kts
29-Dec-17 14:09 47.537579 -122.306596 254 21ft 0kts
29-Dec-17 14:10 47.535445 -122.305772 149 21ft 68kts
29-Dec-17 14:11 47.506920 -122.284810 156 1246ft 133kts
29-Dec-17 14:12 47.469456 -122.255529 152 2027ft 185kts
29-Dec-17 14:13 47.422656 -122.214926 151 2567ft 188kts
29-Dec-17 14:14 47.381649 -122.175057 151 4037ft 165kts
29-Dec-17 14:15 47.345417 -122.163202 221 5401ft 145kts
29-Dec-17 14:16 47.316759 -122.210196 225 6447ft 160kts
29-Dec-17 14:17 47.286657 -122.258959 225 7455ft 159kts
29-Dec-17 14:18 47.256654 -122.304483 219 8442ft 149kts
29-Dec-17 14:19 47.219709 -122.336815 209 9009ft 169kts
29-Dec-17 14:20 47.169569 -122.354467 195 9013ft 196kts
29-Dec-17 14:21 47.114087 -122.364661 193 9010ft 204kts
29-Dec-17 14:22 47.057260 -122.374349 193 9014ft 206kts
29-Dec-17 14:23 46.999966 -122.384084 193 9014ft 208kts
29-Dec-17 14:24 46.942414 -122.393854 193 9014ft 208kts
29-Dec-17 14:25 46.884698 -122.403619 193 9011ft 208kts
29-Dec-17 14:26 46.827018 -122.413346 193 9010ft 209kts
29-Dec-17 14:27 46.769284 -122.423110 193 9009ft 208kts
29-Dec-17 14:28 46.712593 -122.432847 182 9153ft 203kts
29-Dec-17 14:29 46.655697 -122.442246 182 9156ft 208kts
29-Dec-17 14:30 46.597823 -122.451898 182 9141ft 210kts
29-Dec-17 14:31 46.539398 -122.461706 179 9212ft 214kts
29-Dec-17 14:32 46.478510 -122.471775 179 9092ft 226kts
29-Dec-17 14:33 46.415625 -122.482297 179 9082ft 228kts
29-Dec-17 14:34 46.353276 -122.492700 180 9029ft 222kts
29-Dec-17 14:35 46.292455 -122.502781 180 9030ft 219kts
29-Dec-17 14:36 46.232331 -122.512676 181 9011ft 216kts
29-Dec-17 14:37 46.172826 -122.522288 194 8959ft 215kts
29-Dec-17 14:38 46.112644 -122.532339 195 8943ft 220kts
29-Dec-17 14:39 46.051393 -122.542886 202 8904ft 216kts
29-Dec-17 14:40 46.005300 -122.591743 225 7984ft 201kts
29-Dec-17 14:41 45.967122 -122.647523 225 6973ft 190kts
29-Dec-17 14:42 45.931246 -122.702791 226 5972ft 189kts
29-Dec-17 14:43 45.895828 -122.758949 226 5098ft 183kts
29-Dec-17 14:44 45.864159 -122.809849 226 4449ft 169kts
29-Dec-17 14:45 45.825511 -122.841492 187 3491ft 169kts
29-Dec-17 14:46 45.780287 -122.844248 185 3010ft 146kts
29-Dec-17 14:47 45.745914 -122.845712 185 3007ft 103kts
29-Dec-17 14:48 45.718274 -122.845049 163 2994ft 106kts
29-Dec-17 14:49 45.695827 -122.815247 149 3017ft 110kts
29-Dec-17 14:50 45.674642 -122.785373 149 2999ft 104kts
29-Dec-17 14:51 45.656328 -122.757360 133 2525ft 94kts
29-Dec-17 14:52 45.644185 -122.724850 126 2047ft 90kts
29-Dec-17 14:53 45.632228 -122.693332 121 1570ft 90kts
29-Dec-17 14:54 45.619925 -122.661048 118 1085ft 95kts
29-Dec-17 14:55 45.607379 -122.628161 118 590ft 94kts
29-Dec-17 14:56 45.595389 -122.597248 118 101ft 83kts
29-Dec-17 14:57 45.589314 -122.583395 205 33ft 1kts
29-Dec-17 14:58 45.587906 -122.584448 209 33ft 0kts
29-Dec-17 14:59 45.587795 -122.584535 207 33ft 0kts
29-Dec-17 15:00 45.587795 -122.584535 207 33ft 0kts

Navigation Log

Ident Type
Flight plan parsing failed, navigation log unavailable